Time;durP1;ratioP1;P1;durP2;ratioP2;P2;SDS_P1;SDS_P2;PMS_P1;PMS_P2;Temp;Humidity;BMP_temperature;BMP_pressure;BME280_temperature;BME280_humidity;BME280_pressure;Samples;Min_cycle;Max_cycle;Signal;HPM_P1;HPM_P2
2021/10/26 00:01:31;;;;;;;7.93;2.80;;;23.30;62.60;;;;;;5075336;28;20020;-70
2021/10/26 00:03:58;;;;;;;4.28;2.00;;;23.60;63.90;;;;;;5072746;28;20021;-71
2021/10/26 00:06:26;;;;;;;4.88;1.90;;;24.00;61.50;;;;;;5079017;28;20027;-73
2021/10/26 00:08:55;;;;;;;6.13;2.55;;;24.30;59.80;;;;;;5078144;28;20084;-73
2021/10/26 00:11:22;;;;;;;6.13;2.20;;;24.40;61.70;;;;;;5079056;28;20107;-72
2021/10/26 00:13:49;;;;;;;7.85;2.42;;;24.20;60.20;;;;;;5084154;28;20029;-73
2021/10/26 00:16:16;;;;;;;8.57;4.78;;;23.80;61.00;;;;;;5070389;28;20025;-73
2021/10/26 00:18:43;;;;;;;15.13;8.65;;;23.80;59.20;;;;;;5071251;28;20043;-73
2021/10/26 00:21:10;;;;;;;6.68;2.30;;;24.20;58.90;;;;;;5072469;28;20024;-74
2021/10/26 00:23:37;;;;;;;3.63;2.20;;;24.70;56.10;;;;;;5078894;28;20513;-71
2021/10/26 00:26:04;;;;;;;6.68;2.30;;;24.80;54.80;;;;;;5083361;28;20495;-73
2021/10/26 00:28:35;;;;;;;5.72;2.13;;;25.00;56.20;;;;;;5079979;28;20499;-70
2021/10/26 00:31:03;;;;;;;3.95;1.95;;;24.80;55.60;;;;;;5080302;28;20026;-71
2021/10/26 00:33:31;;;;;;;8.85;2.58;;;24.80;56.90;;;;;;5078938;28;20024;-74
2021/10/26 00:35:58;;;;;;;5.80;3.65;;;25.10;55.50;;;;;;5077270;28;20013;-71
2021/10/26 00:38:25;;;;;;;9.07;2.38;;;24.80;54.40;;;;;;5079976;28;20019;-74
2021/10/26 00:40:52;;;;;;;2.75;1.55;;;24.40;52.70;;;;;;5080690;28;20099;-71
2021/10/26 00:43:20;;;;;;;6.60;2.60;;;23.60;54.50;;;;;;5076593;28;20479;-73
2021/10/26 00:45:47;;;;;;;5.15;1.90;;;23.80;56.90;;;;;;5079582;28;20099;-70
2021/10/26 00:48:14;;;;;;;5.45;1.80;;;24.10;55.00;;;;;;5080824;28;20024;-73
2021/10/26 00:50:41;;;;;;;4.82;2.10;;;24.10;56.00;;;;;;5076621;28;20017;-73
2021/10/26 00:53:08;;;;;;;4.15;2.15;;;24.10;57.20;;;;;;5120854;22;20103;-73
2021/10/26 00:55:35;;;;;;;6.60;1.92;;;24.60;54.30;;;;;;5059652;28;20123;-73
2021/10/26 00:58:02;;;;;;;5.32;2.15;;;25.20;53.00;;;;;;5055103;28;20029;-73
2021/10/26 01:00:30;;;;;;;6.80;2.88;;;25.40;54.10;;;;;;5055684;28;20021;-73
2021/10/26 01:03:00;;;;;;;5.65;2.58;;;26.00;54.00;;;;;;5062181;28;20070;-70
2021/10/26 01:05:27;;;;;;;6.80;2.08;;;26.40;52.30;;;;;;5051198;28;20025;-73
2021/10/26 01:07:54;;;;;;;4.35;1.98;;;26.60;48.80;;;;;;5056114;28;20082;-74
2021/10/26 01:10:22;;;;;;;11.48;8.93;;;26.90;47.70;;;;;;5056906;28;20029;-73
2021/10/26 01:12:50;;;;;;;7.82;3.28;;;27.00;47.60;;;;;;5055875;28;20021;-73
2021/10/26 01:15:17;;;;;;;6.53;3.15;;;27.10;48.90;;;;;;5056419;28;20115;-72
2021/10/26 01:17:44;;;;;;;6.40;2.10;;;27.20;47.80;;;;;;5054371;28;20035;-72
2021/10/26 01:20:12;;;;;;;4.70;1.80;;;27.20;47.90;;;;;;5057510;28;20039;-76
2021/10/26 01:22:39;;;;;;;4.97;2.72;;;27.40;43.80;;;;;;5055366;28;20044;-74
2021/10/26 01:25:14;;;;;;;5.03;1.48;;;27.50;44.90;;;;;;5055930;28;20033;-73
2021/10/26 01:27:52;;;;;;;5.60;2.42;;;27.60;45.30;;;;;;5049429;28;20457;-73
2021/10/26 01:30:27;;;;;;;3.70;2.00;;;27.60;43.90;;;;;;5051077;28;20480;-71
2021/10/26 01:32:59;;;;;;;5.07;2.40;;;27.20;43.90;;;;;;5056361;28;20048;-71
2021/10/26 01:35:26;;;;;;;4.13;1.80;;;26.60;45.70;;;;;;5054428;28;20024;-72
2021/10/26 01:37:53;;;;;;;3.75;1.80;;;26.20;47.10;;;;;;5047893;28;20052;-69
2021/10/26 01:40:21;;;;;;;4.10;1.80;;;26.00;46.80;;;;;;5050291;28;20025;-73
2021/10/26 01:42:49;;;;;;;3.95;1.85;;;26.00;46.90;;;;;;5048887;28;20031;-68
2021/10/26 01:45:16;;;;;;;4.10;1.80;;;25.40;47.40;;;;;;5048212;28;20502;-73
2021/10/26 01:47:44;;;;;;;3.78;2.10;;;25.00;48.10;;;;;;5052587;28;20017;-70
2021/10/26 01:50:15;;;;;;;6.93;2.10;;;24.60;47.70;;;;;;5049360;28;20043;-73
2021/10/26 01:52:45;;;;;;;5.82;2.30;;;25.20;47.60;;;;;;5047295;28;20024;-71
2021/10/26 01:55:13;;;;;;;6.25;1.77;;;25.90;44.90;;;;;;5048005;28;20025;-72
2021/10/26 01:57:40;;;;;;;7.07;1.95;;;26.40;49.30;;;;;;5048848;28;20119;-73
2021/10/26 02:00:10;;;;;;;6.57;1.98;;;27.00;46.90;;;;;;5056293;28;20024;-73
2021/10/26 02:02:37;;;;;;;5.65;2.15;;;27.20;44.10;;;;;;5055138;28;20029;-70
2021/10/26 02:05:05;;;;;;;8.68;4.30;;;27.70;44.90;;;;;;5054974;28;20123;-71
2021/10/26 02:07:33;;;;;;;3.97;2.40;;;27.90;42.30;;;;;;5055656;28;20025;-74
2021/10/26 02:10:00;;;;;;;4.82;2.00;;;28.00;45.90;;;;;;5048322;28;20103;-70
2021/10/26 02:12:27;;;;;;;3.95;2.80;;;28.10;42.70;;;;;;5048101;28;20029;-71
2021/10/26 02:14:54;;;;;;;3.28;1.13;;;28.20;42.40;;;;;;5048097;28;20013;-73
2021/10/26 02:17:21;;;;;;;3.38;1.42;;;28.30;43.50;;;;;;5047280;28;20146;-69
2021/10/26 02:19:48;;;;;;;4.38;1.70;;;28.70;41.70;;;;;;5048897;28;20024;-71
2021/10/26 02:22:15;;;;;;;4.20;1.50;;;28.60;43.30;;;;;;5048474;28;20115;-72
2021/10/26 02:24:42;;;;;;;4.82;1.70;;;28.70;39.40;;;;;;5043089;28;20056;-73
2021/10/26 02:27:09;;;;;;;2.70;1.17;;;28.40;40.60;;;;;;5054873;28;20494;-68
2021/10/26 02:29:36;;;;;;;5.15;1.42;;;28.20;40.60;;;;;;5042851;28;20395;-67
2021/10/26 02:32:04;;;;;;;4.93;1.83;;;28.40;38.80;;;;;;5048001;28;20021;-68
2021/10/26 02:34:31;;;;;;;7.00;1.83;;;28.60;41.40;;;;;;5045486;28;20032;-73
2021/10/26 02:36:58;;;;;;;4.32;1.70;;;28.60;41.50;;;;;;5044238;28;20045;-74
2021/10/26 02:39:25;;;;;;;4.95;1.98;;;28.40;41.10;;;;;;5023396;28;20025;-73
2021/10/26 02:41:53;;;;;;;4.43;1.80;;;28.70;41.00;;;;;;5041906;28;20033;-66
2021/10/26 02:44:21;;;;;;;3.83;2.10;;;29.00;40.80;;;;;;5042983;28;20143;-70
2021/10/26 02:46:48;;;;;;;5.32;1.80;;;29.50;39.50;;;;;;5048084;28;20419;-71
2021/10/26 02:49:15;;;;;;;3.63;2.28;;;29.50;39.10;;;;;;5047498;28;20021;-68
2021/10/26 02:51:42;;;;;;;2.97;1.50;;;29.80;37.70;;;;;;5047130;28;20116;-68
2021/10/26 02:54:09;;;;;;;6.70;4.25;;;29.70;37.80;;;;;;5046057;28;20558;-66
2021/10/26 02:56:38;;;;;;;4.68;1.83;;;29.70;39.40;;;;;;5047972;28;20075;-71
2021/10/26 02:59:05;;;;;;;4.32;2.13;;;29.70;37.80;;;;;;5047544;28;20078;-69
2021/10/26 03:01:32;;;;;;;2.80;1.90;;;29.70;38.10;;;;;;5046196;28;20032;-72
2021/10/26 03:03:59;;;;;;;4.18;1.77;;;29.50;40.00;;;;;;5048070;28;20921;-72
2021/10/26 03:06:26;;;;;;;4.30;1.52;;;29.30;40.20;;;;;;5047275;28;20044;-71
2021/10/26 03:08:53;;;;;;;2.70;1.60;;;29.70;37.40;;;;;;5049164;28;20033;-73
2021/10/26 03:11:20;;;;;;;4.57;1.60;;;29.90;37.30;;;;;;5046985;28;20149;-73
2021/10/26 03:13:47;;;;;;;3.60;1.23;;;29.80;36.60;;;;;;5048626;28;20012;-73
2021/10/26 03:16:14;;;;;;;4.50;1.40;;;29.70;36.40;;;;;;5031142;28;20200;-73
2021/10/26 03:18:41;;;;;;;3.00;1.40;;;29.70;36.10;;;;;;5048162;28;20490;-73
2021/10/26 03:21:08;;;;;;;3.15;1.40;;;30.10;38.60;;;;;;5048448;28;20503;-73
2021/10/26 03:23:35;;;;;;;3.92;1.73;;;30.00;36.90;;;;;;5047542;28;20117;-73
2021/10/26 03:26:02;;;;;;;6.43;1.85;;;29.30;36.70;;;;;;5029748;28;20442;-74
2021/10/26 03:28:29;;;;;;;5.35;1.90;;;28.90;37.00;;;;;;5050397;28;20025;-72
2021/10/26 03:30:57;;;;;;;8.02;2.55;;;28.70;40.10;;;;;;5047842;28;20078;-72
2021/10/26 03:33:24;;;;;;;5.85;2.25;;;28.60;45.20;;;;;;5047015;28;20035;-72
2021/10/26 03:35:54;;;;;;;6.35;2.47;;;28.20;47.70;;;;;;5047554;28;20187;-72
2021/10/26 03:38:21;;;;;;;5.18;2.15;;;28.20;46.70;;;;;;5027789;28;20121;-73
2021/10/26 03:40:48;;;;;;;7.78;2.25;;;27.70;47.40;;;;;;5047897;28;20044;-73
2021/10/26 03:43:15;;;;;;;5.95;2.13;;;27.20;48.50;;;;;;5046173;28;20013;-72
2021/10/26 03:45:42;;;;;;;7.13;2.80;;;26.90;49.00;;;;;;5046871;28;20021;-73
2021/10/26 03:48:09;;;;;;;8.20;2.55;;;27.10;49.70;;;;;;5046992;28;20028;-73
2021/10/26 03:50:36;;;;;;;9.60;2.80;;;27.20;49.50;;;;;;5045383;28;20048;-72
2021/10/26 03:53:03;;;;;;;6.50;1.88;;;27.20;48.60;;;;;;5046723;28;20060;-72
2021/10/26 03:55:30;;;;;;;4.03;2.15;;;26.60;49.00;;;;;;5046186;28;20021;-71
2021/10/26 03:57:57;;;;;;;3.88;2.03;;;26.30;50.10;;;;;;5046421;28;20025;-73
2021/10/26 04:00:24;;;;;;;3.83;2.22;;;26.80;50.50;;;;;;5046358;28;20033;-73
2021/10/26 04:02:51;;;;;;;7.85;2.15;;;27.20;48.40;;;;;;5046223;28;20136;-69
2021/10/26 04:05:22;;;;;;;3.65;2.17;;;27.40;48.70;;;;;;5044839;28;20524;-68
2021/10/26 04:08:00;;;;;;;5.18;2.70;;;27.30;48.80;;;;;;5046831;28;20112;-73
2021/10/26 04:10:45;;;;;;;6.45;2.42;;;27.50;48.20;;;;;;5044089;28;20021;-74
2021/10/26 04:13:12;;;;;;;7.78;2.70;;;27.50;47.60;;;;;;5028963;28;20024;-69
2021/10/26 04:15:40;;;;;;;5.68;2.28;;;27.20;48.70;;;;;;5047133;28;20422;-69
2021/10/26 04:18:07;;;;;;;6.78;2.08;;;27.00;48.80;;;;;;5047690;28;20038;-71
2021/10/26 04:20:34;;;;;;;10.80;2.58;;;26.50;50.30;;;;;;5043369;28;20035;-70
2021/10/26 04:23:01;;;;;;;6.13;2.22;;;26.10;51.10;;;;;;5045013;28;20450;-71
2021/10/26 04:25:30;;;;;;;7.50;2.33;;;26.50;51.30;;;;;;5043984;28;20035;-66
2021/10/26 04:27:57;;;;;;;9.10;2.67;;;26.80;50.40;;;;;;5044638;28;20021;-68
2021/10/26 04:30:24;;;;;;;5.88;2.53;;;26.80;51.10;;;;;;5045353;28;20029;-69
2021/10/26 04:32:51;;;;;;;6.85;3.10;;;26.50;50.20;;;;;;5045274;28;20142;-69
2021/10/26 04:35:18;;;;;;;5.40;2.25;;;26.40;50.70;;;;;;5045155;28;20112;-71
2021/10/26 04:37:45;;;;;;;7.60;2.60;;;26.80;51.30;;;;;;5044912;28;20398;-66
2021/10/26 04:40:13;;;;;;;8.82;5.03;;;26.80;50.00;;;;;;5043783;28;20075;-71
2021/10/26 04:42:41;;;;;;;11.27;4.22;;;26.90;52.40;;;;;;5044698;28;20036;-68
2021/10/26 04:45:09;;;;;;;5.80;3.00;;;27.00;50.40;;;;;;5044842;28;20035;-70
2021/10/26 04:47:36;;;;;;;5.93;2.72;;;27.20;50.80;;;;;;5046497;28;20024;-69
2021/10/26 04:50:04;;;;;;;7.40;2.60;;;26.70;50.50;;;;;;5045668;28;20423;-69
2021/10/26 04:52:31;;;;;;;4.47;2.40;;;26.60;51.70;;;;;;5042746;28;20475;-67
2021/10/26 04:54:58;;;;;;;6.65;2.50;;;26.90;51.50;;;;;;5044066;28;20431;-67
2021/10/26 04:57:25;;;;;;;4.18;2.45;;;27.20;50.20;;;;;;5025619;28;20455;-68
2021/10/26 04:59:55;;;;;;;4.15;2.42;;;27.20;49.60;;;;;;5045594;28;20033;-70
2021/10/26 05:02:22;;;;;;;5.18;3.10;;;26.80;51.30;;;;;;5044954;28;20630;-70
2021/10/26 05:04:49;;;;;;;7.80;2.70;;;26.60;50.30;;;;;;5045027;28;20279;-67
2021/10/26 05:07:17;;;;;;;4.90;2.40;;;26.70;51.40;;;;;;5043623;28;20033;-69
2021/10/26 05:09:44;;;;;;;5.57;2.10;;;26.90;50.20;;;;;;5045143;28;20025;-70
2021/10/26 05:12:11;;;;;;;8.52;2.80;;;26.80;50.40;;;;;;5042618;28;20795;-70
2021/10/26 05:14:39;;;;;;;6.10;2.60;;;26.60;50.80;;;;;;5040814;28;20036;-67
2021/10/26 05:17:07;;;;;;;6.60;2.47;;;26.50;51.60;;;;;;5043704;28;20024;-70
2021/10/26 05:19:35;;;;;;;9.27;2.53;;;26.70;51.40;;;;;;5042000;28;20035;-71
2021/10/26 05:22:03;;;;;;;7.05;2.42;;;27.00;51.00;;;;;;5045619;28;20033;-71
2021/10/26 05:24:33;;;;;;;4.97;2.70;;;27.10;49.10;;;;;;5043153;28;20542;-71
2021/10/26 05:27:00;;;;;;;3.65;2.47;;;26.40;50.40;;;;;;5043796;28;20495;-71
2021/10/26 05:29:27;;;;;;;8.27;2.45;;;26.20;51.50;;;;;;5042608;28;20024;-67
2021/10/26 05:31:55;;;;;;;8.70;2.40;;;26.40;51.60;;;;;;5025328;28;20439;-67
2021/10/26 05:34:22;;;;;;;5.22;2.33;;;26.20;51.50;;;;;;5044063;28;20600;-71
2021/10/26 05:36:49;;;;;;;5.15;2.50;;;25.90;53.70;;;;;;5041985;28;20031;-69
2021/10/26 05:39:16;;;;;;;7.18;2.75;;;25.90;53.60;;;;;;5042782;28;20195;-70
2021/10/26 05:41:44;;;;;;;8.88;2.90;;;25.80;53.30;;;;;;5044803;28;20103;-69
2021/10/26 05:44:11;;;;;;;5.32;2.47;;;26.00;52.10;;;;;;5041351;28;20033;-69
2021/10/26 05:46:38;;;;;;;5.70;2.70;;;25.80;52.40;;;;;;5041868;28;20108;-71
2021/10/26 05:49:05;;;;;;;5.53;2.40;;;25.60;53.10;;;;;;5024950;28;20075;-71
2021/10/26 05:51:32;;;;;;;6.32;3.10;;;25.60;52.80;;;;;;5043523;28;20074;-67
2021/10/26 05:53:59;;;;;;;6.50;3.97;;;25.50;54.00;;;;;;5044434;28;20135;-71
2021/10/26 05:56:26;;;;;;;5.10;3.30;;;25.70;53.10;;;;;;5044371;28;20037;-72
2021/10/26 05:58:54;;;;;;;10.45;3.17;;;25.90;53.90;;;;;;5043276;28;20029;-71
2021/10/26 06:01:22;;;;;;;6.78;2.80;;;26.10;52.30;;;;;;5044113;28;20033;-70
2021/10/26 06:03:50;;;;;;;7.90;2.92;;;26.20;51.90;;;;;;5044578;28;20187;-69
2021/10/26 06:06:17;;;;;;;7.22;2.80;;;25.80;52.90;;;;;;5044692;28;20047;-71
2021/10/26 06:08:46;;;;;;;3.08;2.08;;;26.00;53.00;;;;;;5044425;28;20438;-72
2021/10/26 06:11:17;;;;;;;5.32;3.15;;;26.10;52.10;;;;;;5043499;28;20028;-70
2021/10/26 06:13:48;;;;;;;12.25;3.13;;;26.60;52.70;;;;;;5044005;28;20486;-69
2021/10/26 06:16:15;;;;;;;8.05;2.85;;;26.80;51.10;;;;;;5043984;28;20175;-71
2021/10/26 06:18:42;;;;;;;12.15;3.15;;;26.60;51.10;;;;;;5044401;28;20033;-68
2021/10/26 06:21:09;;;;;;;4.82;2.33;;;26.60;51.40;;;;;;5043648;28;20069;-72
2021/10/26 06:23:36;;;;;;;4.53;2.30;;;26.10;53.10;;;;;;5044340;28;20032;-71
2021/10/26 06:26:03;;;;;;;5.43;2.70;;;25.80;53.20;;;;;;5043205;28;20304;-72
2021/10/26 06:28:30;;;;;;;5.40;2.40;;;25.90;53.30;;;;;;5041076;28;20456;-70
2021/10/26 06:30:57;;;;;;;3.95;2.33;;;26.20;52.40;;;;;;5044666;28;20025;-69
2021/10/26 06:33:24;;;;;;;8.50;2.72;;;26.40;52.10;;;;;;5043278;28;20064;-72
2021/10/26 06:35:51;;;;;;;7.40;2.30;;;26.70;51.90;;;;;;5042216;28;20112;-71
2021/10/26 06:38:31;;;;;;;6.72;2.22;;;27.20;52.10;;;;;;4803417;28;10000835;-71
2021/10/26 06:40:58;;;;;;;4.63;2.30;;;27.40;50.30;;;;;;5041146;28;20687;-70
2021/10/26 06:43:25;;;;;;;5.28;2.50;;;27.20;50.40;;;;;;5040942;28;20035;-69
2021/10/26 06:45:52;;;;;;;4.70;2.53;;;26.80;51.20;;;;;;5040722;28;20372;-71
2021/10/26 06:48:20;;;;;;;6.80;2.20;;;26.10;52.00;;;;;;5040092;28;20036;-70
2021/10/26 06:50:47;;;;;;;5.60;2.10;;;25.70;53.10;;;;;;5040427;28;20009;-77
2021/10/26 06:53:14;;;;;;;4.57;2.40;;;25.50;53.30;;;;;;5039482;28;20583;-68
2021/10/26 06:55:42;;;;;;;5.38;2.38;;;25.60;54.10;;;;;;5040102;28;20031;-73
2021/10/26 06:58:08;;;;;;;4.53;2.10;;;25.70;53.00;;;;;;5034521;28;20119;-74
2021/10/26 07:00:35;;;;;;;5.22;2.05;;;25.50;53.20;;;;;;5040142;28;20037;-70
2021/10/26 07:03:04;;;;;;;5.90;2.40;;;25.70;53.30;;;;;;5040224;28;20081;-68
2021/10/26 07:05:32;;;;;;;5.32;2.13;;;25.90;52.80;;;;;;5039861;28;20039;-69
2021/10/26 07:07:59;;;;;;;5.95;2.55;;;25.60;53.00;;;;;;5040850;28;20029;-75
2021/10/26 07:10:26;;;;;;;2.70;1.85;;;25.20;55.20;;;;;;5039561;28;20025;-69
2021/10/26 07:12:54;;;;;;;4.25;2.13;;;25.60;53.30;;;;;;5041124;28;20021;-66
2021/10/26 07:15:22;;;;;;;5.95;1.95;;;25.30;54.50;;;;;;5019387;28;20051;-72
2021/10/26 07:17:50;;;;;;;7.80;2.15;;;25.40;53.90;;;;;;5039820;28;20036;-65
2021/10/26 07:20:17;;;;;;;4.20;1.80;;;25.40;54.30;;;;;;5041221;28;20024;-72
2021/10/26 07:22:52;;;;;;;5.55;2.15;;;25.50;53.90;;;;;;5020819;28;20383;-72
2021/10/26 07:25:20;;;;;;;5.72;1.88;;;25.40;55.00;;;;;;5040162;28;20111;-70
2021/10/26 07:27:49;;;;;;;3.90;1.98;;;25.20;54.30;;;;;;5036743;28;20033;-69
2021/10/26 07:30:16;;;;;;;4.32;2.28;;;24.90;55.20;;;;;;5035358;28;20108;-70
2021/10/26 07:32:44;;;;;;;8.82;2.40;;;24.90;55.70;;;;;;5040907;28;20104;-71
2021/10/26 07:35:11;;;;;;;7.57;2.40;;;24.90;55.10;;;;;;5042525;28;20068;-72
2021/10/26 07:37:44;;;;;;;5.47;2.55;;;24.80;55.50;;;;;;5042804;28;20475;-68
2021/10/26 07:40:12;;;;;;;6.07;1.45;;;24.60;56.60;;;;;;5042573;28;20025;-67
2021/10/26 07:42:39;;;;;;;5.63;1.80;;;24.20;56.60;;;;;;5041042;28;20025;-71
2021/10/26 07:45:07;;;;;;;5.93;2.05;;;23.80;58.60;;;;;;5041919;28;20531;-69
2021/10/26 07:47:36;;;;;;;5.65;2.38;;;23.20;59.90;;;;;;5041257;28;20024;-68
2021/10/26 07:50:05;;;;;;;7.22;2.13;;;22.90;60.80;;;;;;5041528;28;20076;-76
2021/10/26 07:52:33;;;;;;;3.40;1.83;;;22.40;62.20;;;;;;5037978;28;20036;-68
2021/10/26 07:55:01;;;;;;;5.00;1.85;;;21.70;65.40;;;;;;5037040;28;20118;-71
2021/10/26 07:57:28;;;;;;;7.15;2.22;;;21.10;68.10;;;;;;5039844;28;20039;-76
2021/10/26 07:59:55;;;;;;;3.15;2.00;;;20.70;69.70;;;;;;5036643;28;20041;-71
2021/10/26 08:02:23;;;;;;;5.53;1.95;;;20.30;72.40;;;;;;5038659;28;20466;-71
2021/10/26 08:04:50;;;;;;;5.70;2.10;;;20.10;74.30;;;;;;5038517;28;20442;-70
2021/10/26 08:07:18;;;;;;;6.63;2.25;;;19.70;77.60;;;;;;5039191;28;20037;-73
2021/10/26 08:09:49;;;;;;;4.93;1.60;;;19.40;80.20;;;;;;5040401;28;20040;-69
2021/10/26 08:12:17;;;;;;;7.70;4.25;;;19.30;81.80;;;;;;5038932;28;20051;-76
2021/10/26 08:14:45;;;;;;;8.35;2.58;;;19.20;82.90;;;;;;5037881;28;20021;-74
2021/10/26 08:17:12;;;;;;;3.83;1.75;;;19.10;83.80;;;;;;5040848;28;20029;-65
2021/10/26 08:19:42;;;;;;;6.55;2.30;;;19.00;84.90;;;;;;5038900;28;20233;-66
2021/10/26 08:22:14;;;;;;;5.90;2.30;;;18.90;87.70;;;;;;5040111;28;20029;-68
2021/10/26 08:24:43;;;;;;;4.40;2.33;;;18.90;88.00;;;;;;5038549;28;20036;-69
2021/10/26 08:27:15;;;;;;;4.53;2.08;;;18.70;90.20;;;;;;5038826;28;20108;-67
2021/10/26 08:29:52;;;;;;;5.63;2.72;;;18.60;91.10;;;;;;5040917;28;20025;-70
2021/10/26 08:35:39;;;;;;;7.28;2.58;;;18.40;92.00;;;;;;5040717;28;20499;-70
2021/10/26 08:37:42;;;;;;;8.00;2.03;;;18.50;91.90;;;;;;5025972;28;20037;-70
2021/10/26 08:40:10;;;;;;;2.70;1.60;;;18.40;92.80;;;;;;5036921;28;20128;-70
2021/10/26 08:42:37;;;;;;;5.63;1.70;;;18.40;92.20;;;;;;5038799;28;20040;-67
2021/10/26 08:45:05;;;;;;;5.45;2.00;;;18.30;92.80;;;;;;5041863;28;20029;-66
2021/10/26 08:47:34;;;;;;;5.68;2.22;;;18.20;93.60;;;;;;5022735;28;20403;-70
2021/10/26 08:50:01;;;;;;;5.18;2.10;;;18.20;93.70;;;;;;5040826;28;20060;-74
2021/10/26 08:52:28;;;;;;;4.55;2.00;;;18.10;93.90;;;;;;5036242;28;20588;-70
2021/10/26 08:54:57;;;;;;;6.00;2.45;;;18.20;94.30;;;;;;5042561;28;20048;-68
2021/10/26 08:57:26;;;;;;;4.82;2.08;;;18.10;94.50;;;;;;5025539;28;20036;-73
2021/10/26 08:59:58;;;;;;;3.03;1.58;;;18.20;94.40;;;;;;5040468;28;20116;-67
2021/10/26 09:02:41;;;;;;;7.07;2.25;;;18.20;94.40;;;;;;5040280;28;20103;-73
2021/10/26 09:05:20;;;;;;;3.25;1.95;;;18.20;94.60;;;;;;5039063;28;20112;-74
2021/10/26 09:08:13;;;;;;;4.32;1.77;;;18.30;95.00;;;;;;5040597;28;20025;-74
2021/10/26 09:10:41;;;;;;;;;;;18.30;94.70;;;;;;5036949;28;20122;-72
2021/10/26 09:19:15;;;;;;;5.60;2.28;;;18.20;94.90;;;;;;5041763;28;20039;-74
2021/10/26 09:22:03;;;;;;;6.70;2.20;;;18.30;94.90;;;;;;5041742;28;20493;-70
2021/10/26 09:24:31;;;;;;;7.18;1.85;;;18.30;94.80;;;;;;5035902;28;20512;-69
2021/10/26 09:27:06;;;;;;;9.65;2.78;;;18.30;95.60;;;;;;5040427;28;20025;-69
2021/10/26 09:29:41;;;;;;;6.53;2.85;;;18.30;95.00;;;;;;5034883;28;20063;-71
2021/10/26 09:32:37;;;;;;;10.68;6.68;;;18.40;95.10;;;;;;5040473;28;20029;-75
2021/10/26 09:35:07;;;;;;;4.72;1.90;;;18.40;95.50;;;;;;5023141;28;20031;-72
2021/10/26 09:37:40;;;;;;;4.72;2.10;;;18.40;95.00;;;;;;5039406;28;20059;-75
2021/10/26 09:40:09;;;;;;;5.80;1.98;;;18.30;95.50;;;;;;5039019;28;20033;-71
2021/10/26 09:42:51;;;;;;;3.10;2.15;;;18.30;95.40;;;;;;5018075;28;20043;-70
2021/10/26 09:45:27;;;;;;;6.50;2.17;;;18.20;95.60;;;;;;5038290;28;20507;-72
2021/10/26 09:47:59;;;;;;;7.70;3.25;;;18.20;95.30;;;;;;5041549;28;20204;-73
2021/10/26 09:50:36;;;;;;;6.20;2.33;;;18.30;95.20;;;;;;5036987;28;20491;-71
2021/10/26 09:53:06;;;;;;;7.97;3.67;;;18.30;95.80;;;;;;5035069;28;20075;-71
2021/10/26 09:55:40;;;;;;;7.07;2.35;;;18.30;95.50;;;;;;5035675;28;20028;-74
2021/10/26 09:58:15;;;;;;;5.32;3.65;;;18.30;96.20;;;;;;5016669;28;20037;-69
2021/10/26 10:00:45;;;;;;;5.07;2.22;;;18.30;96.30;;;;;;5035999;28;20029;-70
2021/10/26 10:03:17;;;;;;;3.13;1.67;;;18.40;95.90;;;;;;5018259;28;20072;-68
2021/10/26 10:05:52;;;;;;;4.95;2.47;;;18.30;95.60;;;;;;5037985;28;20076;-70
2021/10/26 10:08:37;;;;;;;5.40;2.35;;;18.30;96.20;;;;;;5037279;28;20295;-71
2021/10/26 10:11:22;;;;;;;4.35;1.95;;;18.40;96.30;;;;;;5037729;28;20586;-68
2021/10/26 10:14:00;;;;;;;4.33;2.13;;;18.40;96.20;;;;;;4686004;28;10000754;-71
2021/10/26 10:16:28;;;;;;;3.83;1.70;;;18.40;97.20;;;;;;5034301;28;20033;-67
2021/10/26 10:18:58;;;;;;;3.47;1.67;;;18.40;96.50;;;;;;5034315;28;20513;-67
2021/10/26 10:21:29;;;;;;;7.50;2.63;;;18.30;96.10;;;;;;5034490;28;20380;-66
2021/10/26 10:23:59;;;;;;;6.55;2.03;;;18.30;96.10;;;;;;5033822;28;20112;-71
2021/10/26 10:26:28;;;;;;;8.88;1.80;;;18.30;96.50;;;;;;5036677;28;20044;-68
2021/10/26 10:28:56;;;;;;;30.38;23.38;;;18.20;96.10;;;;;;5035721;28;20036;-68
2021/10/26 10:31:26;;;;;;;19.90;11.77;;;18.30;96.10;;;;;;5038073;28;20020;-68
2021/10/26 10:33:58;;;;;;;23.38;18.70;;;18.30;95.90;;;;;;5038595;28;20033;-67
2021/10/26 10:36:27;;;;;;;12.07;4.93;;;18.30;96.40;;;;;;5040140;28;20043;-72
2021/10/26 10:39:07;;;;;;;34.30;25.20;;;18.30;95.90;;;;;;5038937;28;20021;-70
2021/10/26 10:41:37;;;;;;;14.02;10.88;;;18.30;96.70;;;;;;5038064;28;20280;-70
2021/10/26 10:44:23;;;;;;;18.25;14.20;;;18.40;95.60;;;;;;5037897;28;20060;-68
2021/10/26 10:46:54;;;;;;;13.57;8.30;;;18.20;96.00;;;;;;5039467;28;20041;-69
2021/10/26 10:49:26;;;;;;;14.80;11.05;;;18.30;95.40;;;;;;5041199;28;20075;-70
2021/10/26 10:52:03;;;;;;;18.30;13.30;;;18.30;95.30;;;;;;5040396;28;20455;-68
2021/10/26 10:54:37;;;;;;;16.33;12.30;;;18.20;96.20;;;;;;5037987;28;20103;-69
2021/10/26 10:57:33;;;;;;;20.63;11.70;;;18.20;96.30;;;;;;5036627;28;20033;-69
2021/10/26 11:00:22;;;;;;;5.03;2.95;;;18.30;97.00;;;;;;5036732;28;20046;-70
2021/10/26 11:02:51;;;;;;;10.05;6.15;;;18.20;96.10;;;;;;5035637;28;20246;-72
2021/10/26 11:05:37;;;;;;;13.95;7.80;;;18.10;96.30;;;;;;5040770;28;20090;-69
2021/10/26 11:08:07;;;;;;;11.10;6.03;;;18.10;96.20;;;;;;5043432;28;20036;-72
2021/10/26 11:10:53;;;;;;;4.88;2.38;;;18.10;96.60;;;;;;5039935;28;20025;-70
2021/10/26 11:13:26;;;;;;;6.90;1.80;;;18.00;96.40;;;;;;5022185;28;20146;-73
2021/10/26 11:15:58;;;;;;;4.10;1.92;;;17.90;96.50;;;;;;5021026;28;20143;-69
2021/10/26 11:18:53;;;;;;;5.00;2.40;;;17.90;96.40;;;;;;5039313;28;20036;-73
2021/10/26 11:21:26;;;;;;;5.28;2.55;;;17.80;96.80;;;;;;5038841;28;20434;-70
2021/10/26 11:23:59;;;;;;;7.90;2.78;;;17.80;96.60;;;;;;5040108;28;20483;-71
2021/10/26 11:26:32;;;;;;;;;;;17.70;97.30;;;;;;5041776;28;20383;-69
2021/10/26 11:29:01;;;;;;;6.30;2.60;;;17.70;97.20;;;;;;5038402;28;19921;-73
2021/10/26 11:31:41;;;;;;;8.27;2.80;;;17.70;97.50;;;;;;5040377;28;20434;-72
2021/10/26 11:34:17;;;;;;;6.40;2.22;;;17.70;97.40;;;;;;5041951;28;20029;-69
2021/10/26 11:36:44;;;;;;;5.15;2.35;;;17.60;97.60;;;;;;5023634;28;20128;-69
2021/10/26 11:39:15;;;;;;;7.05;1.85;;;17.60;97.80;;;;;;5043030;28;20024;-74
2021/10/26 11:41:44;;;;;;;8.68;2.30;;;17.50;97.70;;;;;;5039614;28;20033;-72
2021/10/26 11:44:14;;;;;;;4.45;2.47;;;17.60;97.50;;;;;;5041541;28;20071;-73
2021/10/26 11:46:46;;;;;;;9.82;2.42;;;17.50;97.80;;;;;;5041089;28;20424;-71
2021/10/26 11:49:32;;;;;;;5.22;1.98;;;17.60;97.50;;;;;;5041729;28;20029;-73
2021/10/26 11:52:01;;;;;;;7.90;2.45;;;17.50;97.90;;;;;;5040905;28;20094;-71
2021/10/26 11:54:38;;;;;;;5.65;3.05;;;17.50;98.20;;;;;;5043518;28;21082;-72
2021/10/26 11:57:10;;;;;;;4.25;1.77;;;17.60;98.00;;;;;;5042695;28;20033;-72
2021/10/26 11:59:45;;;;;;;5.40;2.37;;;17.60;97.70;;;;;;5041585;28;20028;-72
2021/10/26 12:02:22;;;;;;;6.97;2.28;;;17.60;97.70;;;;;;5023973;28;20292;-72
2021/10/26 12:04:59;;;;;;;7.70;2.15;;;17.50;97.80;;;;;;5040477;28;20892;-76
2021/10/26 12:07:30;;;;;;;4.32;1.92;;;17.50;98.40;;;;;;5040544;28;20029;-70
2021/10/26 12:10:07;;;;;;;5.55;2.20;;;17.50;98.10;;;;;;5043018;28;20028;-73
2021/10/26 12:12:35;;;;;;;3.85;2.38;;;17.60;97.90;;;;;;5040107;28;20620;-74
2021/10/26 12:15:06;;;;;;;5.10;2.25;;;17.50;98.40;;;;;;5041573;28;20043;-73
2021/10/26 12:17:35;;;;;;;5.90;2.40;;;17.50;97.90;;;;;;5040600;28;20029;-72
2021/10/26 12:20:18;;;;;;;5.50;2.65;;;17.60;97.70;;;;;;5042582;28;20043;-72
2021/10/26 12:22:57;;;;;;;5.38;2.42;;;17.60;98.00;;;;;;5042434;28;20084;-73
2021/10/26 12:25:44;;;;;;;5.03;2.38;;;17.60;97.80;;;;;;5025549;28;20471;-73
2021/10/26 12:28:12;;;;;;;9.02;3.25;;;17.50;98.90;;;;;;5039664;28;20121;-72
2021/10/26 12:30:41;;;;;;;5.70;2.13;;;17.50;98.50;;;;;;5041018;28;20052;-72
2021/10/26 12:33:32;;;;;;;8.35;4.13;;;17.50;98.70;;;;;;5041304;28;20032;-71
2021/10/26 12:36:07;;;;;;;4.45;2.13;;;17.50;98.80;;;;;;5042160;28;20395;-73
2021/10/26 12:38:36;;;;;;;5.35;2.38;;;17.50;98.50;;;;;;5040188;28;20549;-72
2021/10/26 12:41:12;;;;;;;6.40;2.25;;;17.50;98.60;;;;;;5042165;28;20488;-72
2021/10/26 12:43:42;;;;;;;7.50;3.85;;;17.50;98.80;;;;;;5042387;28;20074;-73
2021/10/26 12:46:27;;;;;;;4.80;2.30;;;17.60;98.50;;;;;;5042514;28;20080;-71
2021/10/26 12:49:17;;;;;;;6.43;2.15;;;17.50;98.50;;;;;;5040943;28;20032;-70
2021/10/26 12:51:44;;;;;;;5.20;2.33;;;17.50;98.80;;;;;;5041382;28;20398;-71
2021/10/26 12:54:19;;;;;;;4.30;2.65;;;17.50;98.60;;;;;;5062752;23;20067;-73
2021/10/26 12:56:55;;;;;;;5.43;2.22;;;17.50;98.60;;;;;;5062786;28;20073;-70
2021/10/26 12:59:26;;;;;;;6.80;2.25;;;17.50;99.10;;;;;;5062550;28;20025;-72
2021/10/26 13:02:11;;;;;;;4.32;2.03;;;17.40;99.00;;;;;;5060643;28;20440;-70
2021/10/26 13:04:39;;;;;;;7.13;2.55;;;17.30;99.30;;;;;;5060043;28;20095;-72
2021/10/26 13:07:12;;;;;;;5.35;2.70;;;17.20;99.50;;;;;;5063016;28;20390;-70
2021/10/26 13:09:45;;;;;;;5.40;2.08;;;17.20;99.60;;;;;;5061527;28;20505;-74